createdAt,value
2019-01-18T00:02:40.573Z,49.50
2019-01-18T00:05:32.658Z,49.60
2019-01-18T00:08:24.565Z,49.60
2019-01-18T00:11:16.695Z,49.70
2019-01-18T00:14:08.956Z,49.60
2019-01-18T00:17:00.750Z,49.60
2019-01-18T00:19:52.942Z,49.50
2019-01-18T00:22:44.736Z,49.50
2019-01-18T00:25:36.972Z,49.50
2019-01-18T00:28:29.907Z,49.50
2019-01-18T00:31:22.433Z,49.70
2019-01-18T00:34:14.480Z,49.60
2019-01-18T00:37:06.890Z,49.30
2019-01-18T00:40:00.674Z,49.40
2019-01-18T00:42:53.105Z,49.50
2019-01-18T00:45:45.207Z,49.30
2019-01-18T00:48:37.168Z,49.30
2019-01-18T00:51:29.492Z,49.40
2019-01-18T00:54:21.615Z,49.30
2019-01-18T00:57:13.668Z,49.40
2019-01-18T01:00:07.969Z,49.40
2019-01-18T01:03:00.209Z,49.60
2019-01-18T01:05:52.396Z,49.50
2019-01-18T01:08:44.706Z,49.40
2019-01-18T01:11:36.678Z,49.20
2019-01-18T01:14:29.258Z,49.40
2019-01-18T01:17:21.302Z,49.40
2019-01-18T01:20:14.800Z,49.70
2019-01-18T01:23:07.153Z,49.70
2019-01-18T01:25:59.227Z,49.40
2019-01-18T01:28:52.331Z,49.30
2019-01-18T01:31:44.509Z,49.30
2019-01-18T01:34:36.998Z,49.30
2019-01-18T01:37:29.081Z,48.90
2019-01-18T01:40:22.395Z,48.60
2019-01-18T01:43:14.247Z,48.20
2019-01-18T01:46:06.544Z,48.20
2019-01-18T01:48:58.605Z,48.20
2019-01-18T01:51:50.898Z,48.20
2019-01-18T01:54:43.728Z,48.20
2019-01-18T01:57:37.121Z,48.20
2019-01-18T02:00:30.147Z,48.20
2019-01-18T02:03:22.099Z,48.30
2019-01-18T02:06:14.201Z,48.50
2019-01-18T02:09:07.691Z,48.50
2019-01-18T02:11:59.539Z,48.50
2019-01-18T02:14:51.854Z,48.70
2019-01-18T02:17:43.938Z,48.70
2019-01-18T02:20:35.866Z,48.60
2019-01-18T02:23:27.759Z,48.60
2019-01-18T02:26:20.362Z,48.50
2019-01-18T02:29:13.147Z,48.50
2019-01-18T02:32:05.664Z,48.50
2019-01-18T02:34:57.764Z,48.40
2019-01-18T02:37:50.664Z,48.40
2019-01-18T02:40:42.957Z,48.40
2019-01-18T02:43:36.065Z,48.20
2019-01-18T02:46:28.072Z,48.20
2019-01-18T02:49:20.840Z,48.30
2019-01-18T02:52:13.014Z,48.50
2019-01-18T02:55:05.293Z,48.30
2019-01-18T02:57:57.511Z,48.40
2019-01-18T03:00:49.722Z,48.60
2019-01-18T03:03:41.916Z,48.50
2019-01-18T03:06:34.395Z,48.50
2019-01-18T03:09:26.737Z,48.50
2019-01-18T03:12:21.372Z,48.50
2019-01-18T03:15:13.379Z,48.50
2019-01-18T03:18:08.177Z,48.20
2019-01-18T03:21:00.120Z,48.50
2019-01-18T03:23:52.277Z,48.40
2019-01-18T03:26:44.127Z,48.40
2019-01-18T03:29:38.196Z,48.20
2019-01-18T03:32:30.786Z,48.40
2019-01-18T03:35:23.436Z,48.30
2019-01-18T03:38:15.499Z,53.20
2019-01-18T03:41:07.452Z,55.70
2019-01-18T03:43:59.781Z,52.50
2019-01-18T03:46:51.969Z,49.80
2019-01-18T03:49:44.265Z,49.40
2019-01-18T03:52:36.102Z,49.40
2019-01-18T03:55:28.557Z,49.00
2019-01-18T03:58:20.932Z,49.00
2019-01-18T04:01:14.142Z,48.70
2019-01-18T04:04:06.029Z,48.80
2019-01-18T04:06:58.248Z,48.60
2019-01-18T04:09:50.419Z,48.40
2019-01-18T04:12:42.809Z,49.10
2019-01-18T04:15:35.130Z,48.40
2019-01-18T04:18:27.283Z,48.50
2019-01-18T04:21:19.666Z,48.20
2019-01-18T04:24:12.159Z,48.40
2019-01-18T04:27:04.448Z,48.20
2019-01-18T04:29:56.371Z,48.30
2019-01-18T04:32:48.629Z,48.30
2019-01-18T04:35:41.139Z,48.20
2019-01-18T04:38:33.390Z,46.60
2019-01-18T04:41:25.353Z,45.90
2019-01-18T04:44:18.599Z,45.60
2019-01-18T04:47:11.122Z,45.50
2019-01-18T04:50:03.560Z,45.80
2019-01-18T04:52:55.777Z,46.20
2019-01-18T04:55:47.982Z,45.50
2019-01-18T04:58:40.162Z,44.60
2019-01-18T05:01:32.593Z,43.70
2019-01-18T05:04:25.639Z,43.20
2019-01-18T05:07:17.817Z,43.50
2019-01-18T05:10:19.082Z,44.00
2019-01-18T05:13:11.452Z,44.40
2019-01-18T05:16:07.104Z,44.80
2019-01-18T05:18:59.188Z,45.10
2019-01-18T05:21:52.246Z,45.00
2019-01-18T05:24:51.327Z,45.20
2019-01-18T05:27:53.752Z,45.10
2019-01-18T05:34:19.492Z,45.40
2019-01-18T05:37:12.307Z,45.20
2019-01-18T05:40:06.277Z,45.30
2019-01-18T05:43:03.223Z,44.90
2019-01-18T05:45:56.130Z,45.00
2019-01-18T05:48:48.725Z,44.70
2019-01-18T05:51:41.807Z,44.70
2019-01-18T05:54:34.438Z,44.10
2019-01-18T05:57:28.975Z,43.50
2019-01-18T06:00:29.275Z,43.30
2019-01-18T06:03:21.865Z,43.30
2019-01-18T06:06:18.138Z,43.40
2019-01-18T06:09:12.105Z,43.00
2019-01-18T06:12:12.444Z,42.20
2019-01-18T06:15:22.282Z,42.90
2019-01-18T06:22:14.698Z,42.90
2019-01-18T06:25:13.165Z,42.50
2019-01-18T06:28:05.444Z,43.20
2019-01-18T06:31:01.899Z,43.00
2019-01-18T06:34:02.865Z,43.20
2019-01-18T06:36:55.579Z,42.70
2019-01-18T06:39:51.585Z,43.10
2019-01-18T06:42:48.196Z,43.10
2019-01-18T06:45:44.125Z,42.70
2019-01-18T06:48:40.540Z,43.20
2019-01-18T06:51:39.326Z,43.30
2019-01-18T06:54:33.226Z,43.10
2019-01-18T06:57:27.939Z,43.00
2019-01-18T07:00:25.284Z,42.70
2019-01-18T07:03:18.424Z,42.90
2019-01-18T07:06:11.299Z,43.30
2019-01-18T07:09:04.459Z,42.80
2019-01-18T07:11:57.529Z,43.00
2019-01-18T07:14:50.702Z,42.80
2019-01-18T07:17:44.708Z,43.20
2019-01-18T07:20:39.054Z,43.00
2019-01-18T07:23:32.332Z,43.20
2019-01-18T07:26:25.671Z,43.00
2019-01-18T07:29:18.548Z,42.60
2019-01-18T07:32:14.620Z,43.00
2019-01-18T07:35:14.861Z,43.10
2019-01-18T07:38:11.081Z,43.00
2019-01-18T07:41:07.561Z,43.40
2019-01-18T07:44:00.734Z,43.40
2019-01-18T07:46:54.517Z,43.20
2019-01-18T07:50:30.632Z,42.40
2019-01-18T07:52:58.295Z,43.20
2019-01-18T07:56:01.255Z,43.20
2019-01-18T07:58:53.922Z,43.20
2019-01-18T08:01:47.448Z,43.20
2019-01-18T08:05:06.370Z,43.20
2019-01-18T08:08:00.848Z,42.80
2019-01-18T08:10:58.039Z,43.10
2019-01-18T08:13:54.426Z,43.30
2019-01-18T08:16:46.734Z,43.20
2019-01-18T08:19:39.136Z,42.80
2019-01-18T08:22:33.200Z,42.60
2019-01-18T08:25:25.438Z,43.30
2019-01-18T08:28:18.073Z,42.30
2019-01-18T08:34:26.912Z,41.60
2019-01-18T08:37:19.294Z,41.30
2019-01-18T08:40:15.593Z,41.20
2019-01-18T08:43:08.976Z,40.70
2019-01-18T08:46:06.902Z,40.90
2019-01-18T08:49:01.238Z,40.70
2019-01-18T08:51:56.802Z,41.10
2019-01-18T08:54:48.079Z,40.60
2019-01-18T08:57:43.888Z,39.80
2019-01-18T09:00:36.768Z,40.10
2019-01-18T09:03:30.568Z,40.30
2019-01-18T09:06:23.557Z,41.00
2019-01-18T09:09:16.682Z,40.20
2019-01-18T09:12:09.234Z,40.40
2019-01-18T09:15:01.835Z,40.70
2019-01-18T09:17:54.733Z,40.50
2019-01-18T09:20:47.117Z,40.70
2019-01-18T09:23:39.799Z,39.60
2019-01-18T09:26:33.794Z,40.00
2019-01-18T09:29:34.524Z,39.60
2019-01-18T09:32:29.228Z,39.40
2019-01-18T09:35:26.949Z,39.70
2019-01-18T09:38:20.871Z,40.00
2019-01-18T09:41:18.087Z,40.40
2019-01-18T09:44:33.100Z,40.30
2019-01-18T09:47:27.043Z,39.60
2019-01-18T09:50:20.512Z,39.80
2019-01-18T09:53:13.677Z,40.20
2019-01-18T09:56:07.117Z,40.40
2019-01-18T09:58:59.781Z,40.40
2019-01-18T10:01:51.746Z,40.50
2019-01-18T10:04:45.658Z,40.70
2019-01-18T10:07:38.050Z,40.00
2019-01-18T10:10:30.557Z,40.10
2019-01-18T10:13:23.143Z,40.00
2019-01-18T10:16:16.198Z,40.20
2019-01-18T10:19:11.831Z,40.10
2019-01-18T10:22:04.263Z,40.20
2019-01-18T10:24:56.954Z,39.80
2019-01-18T10:27:50.664Z,39.90
2019-01-18T10:30:48.220Z,39.40
2019-01-18T10:33:45.508Z,39.40
2019-01-18T10:36:38.608Z,39.80
2019-01-18T10:39:32.383Z,39.90
2019-01-18T10:42:26.902Z,40.00
2019-01-18T10:45:28.668Z,40.10
2019-01-18T10:48:23.939Z,41.10
2019-01-18T10:51:16.193Z,40.10
2019-01-18T10:54:10.368Z,40.30
2019-01-18T10:57:04.116Z,40.60
2019-01-18T11:00:03.251Z,40.50
2019-01-18T11:02:57.384Z,40.70
2019-01-18T11:05:54.770Z,41.00
2019-01-18T11:08:48.436Z,40.90
2019-01-18T11:11:42.089Z,40.60
2019-01-18T11:14:35.196Z,41.10
2019-01-18T11:17:27.955Z,40.70
2019-01-18T11:20:23.064Z,40.80
2019-01-18T11:23:15.780Z,41.10
2019-01-18T11:26:09.464Z,41.30
2019-01-18T11:29:03.422Z,41.90
2019-01-18T11:32:00.411Z,41.20
2019-01-18T11:34:56.144Z,41.30
2019-01-18T11:37:52.756Z,41.50
2019-01-18T11:40:48.129Z,41.80
2019-01-18T11:43:39.096Z,42.20
2019-01-18T11:46:33.638Z,42.10
2019-01-18T11:49:25.979Z,42.30
2019-01-18T11:52:20.500Z,42.40
2019-01-18T11:55:16.863Z,42.50
2019-01-18T11:58:14.033Z,42.60
2019-01-18T12:01:04.686Z,42.70
2019-01-18T12:03:57.131Z,42.80
2019-01-18T12:06:49.793Z,42.80
2019-01-18T12:09:42.400Z,42.90
2019-01-18T12:12:36.072Z,42.90
2019-01-18T12:15:29.129Z,43.00
2019-01-18T12:18:22.352Z,43.70
2019-01-18T12:21:15.427Z,43.40
2019-01-18T12:24:08.188Z,43.40
2019-01-18T12:27:00.212Z,43.10
2019-01-18T12:29:52.454Z,43.50
2019-01-18T12:32:45.028Z,43.30
2019-01-18T12:35:37.305Z,43.40
2019-01-18T12:38:29.360Z,43.50
2019-01-18T12:41:21.676Z,43.70
2019-01-18T12:44:13.694Z,43.50
2019-01-18T12:47:06.508Z,43.50
2019-01-18T12:49:58.885Z,43.50
2019-01-18T12:52:51.350Z,43.70
2019-01-18T12:55:43.475Z,42.00
2019-01-18T12:58:36.142Z,41.50
2019-01-18T13:01:28.481Z,40.80
2019-01-18T13:04:21.613Z,41.10
2019-01-18T13:07:14.789Z,39.80
2019-01-18T13:10:11.915Z,39.20
2019-01-18T13:13:02.236Z,39.10
2019-01-18T13:16:24.812Z,38.70
2019-01-18T13:19:22.360Z,38.50
2019-01-18T13:22:15.074Z,38.70
2019-01-18T13:25:17.295Z,39.30
2019-01-18T13:28:09.728Z,39.50
2019-01-18T13:31:03.929Z,39.60
2019-01-18T13:33:56.926Z,39.80
2019-01-18T13:36:49.801Z,40.20
2019-01-18T13:39:43.532Z,40.30
2019-01-18T13:42:36.810Z,40.60
2019-01-18T13:45:30.164Z,40.60
2019-01-18T13:48:22.595Z,40.80
2019-01-18T13:51:16.399Z,40.80
2019-01-18T13:54:09.230Z,40.90
2019-01-18T13:57:02.216Z,41.20
2019-01-18T13:59:55.324Z,41.30
2019-01-18T14:02:48.769Z,41.10
2019-01-18T14:05:42.052Z,40.90
2019-01-18T14:08:35.131Z,40.70
2019-01-18T14:11:28.207Z,40.50
2019-01-18T14:14:21.713Z,41.10
2019-01-18T14:17:14.000Z,40.90
2019-01-18T14:20:06.909Z,41.20
2019-01-18T14:22:59.828Z,41.50
2019-01-18T14:25:52.900Z,41.80
2019-01-18T14:28:45.745Z,41.90
2019-01-18T14:31:43.609Z,42.10
2019-01-18T14:34:36.234Z,42.20
2019-01-18T14:37:28.997Z,42.20
2019-01-18T14:40:22.020Z,42.30
2019-01-18T14:43:14.300Z,42.40
2019-01-18T14:46:06.879Z,42.60
2019-01-18T14:48:59.032Z,42.60
2019-01-18T14:51:52.117Z,42.70
2019-01-18T14:54:45.423Z,42.70
2019-01-18T14:57:38.109Z,43.00
2019-01-18T15:00:33.515Z,43.00
2019-01-18T15:03:25.919Z,43.10
2019-01-18T15:06:18.127Z,43.30
2019-01-18T15:09:11.734Z,43.20
2019-01-18T15:12:03.855Z,43.40
2019-01-18T15:14:56.111Z,43.50
2019-01-18T15:17:49.434Z,43.50
2019-01-18T15:20:42.167Z,43.70
2019-01-18T15:23:34.308Z,43.80
2019-01-18T15:26:26.747Z,43.80
2019-01-18T15:29:19.199Z,43.80
2019-01-18T15:32:11.435Z,43.90
2019-01-18T15:35:03.609Z,44.00
2019-01-18T15:37:56.608Z,44.10
2019-01-18T15:40:50.096Z,44.20
2019-01-18T15:43:42.559Z,44.40
2019-01-18T15:46:34.580Z,44.30
2019-01-18T15:49:26.794Z,44.30
2019-01-18T15:52:20.118Z,44.40
2019-01-18T15:55:13.509Z,44.50
2019-01-18T15:58:06.973Z,45.30
2019-01-18T16:00:59.700Z,44.60
2019-01-18T16:03:51.849Z,44.70
2019-01-18T16:06:44.395Z,44.80
2019-01-18T16:09:37.030Z,44.80
2019-01-18T16:12:29.023Z,44.80
2019-01-18T16:15:22.085Z,44.90
2019-01-18T16:18:15.594Z,44.90
2019-01-18T16:21:08.264Z,44.90
2019-01-18T16:24:00.858Z,44.90
2019-01-18T16:26:53.787Z,44.90
2019-01-18T16:29:46.711Z,44.90
2019-01-18T16:32:39.722Z,44.90
2019-01-18T16:35:32.539Z,44.90
2019-01-18T16:38:25.120Z,45.00
2019-01-18T16:41:17.475Z,44.90
2019-01-18T16:44:09.995Z,44.90
2019-01-18T16:47:02.662Z,44.80
2019-01-18T16:49:55.339Z,44.90
2019-01-18T16:52:47.779Z,45.10
2019-01-18T16:55:40.074Z,45.00
2019-01-18T16:58:32.270Z,44.90
2019-01-18T17:01:24.767Z,44.90
2019-01-18T17:04:16.856Z,44.90
2019-01-18T17:07:08.827Z,44.90
2019-01-18T17:10:01.249Z,45.00
2019-01-18T17:12:54.526Z,44.90
2019-01-18T17:15:46.886Z,45.00
2019-01-18T17:18:39.906Z,45.00
2019-01-18T17:21:31.801Z,45.00
2019-01-18T17:24:23.903Z,45.20
2019-01-18T17:27:15.957Z,45.20
2019-01-18T17:30:08.889Z,45.10
2019-01-18T17:33:01.098Z,45.10
2019-01-18T17:35:58.423Z,45.10
2019-01-18T17:39:07.749Z,45.30
2019-01-18T17:42:18.052Z,45.30
2019-01-18T17:45:44.329Z,45.30
2019-01-18T17:48:46.777Z,45.30
2019-01-18T17:51:50.171Z,45.30
2019-01-18T17:54:50.480Z,45.40
2019-01-18T17:58:04.611Z,45.30
2019-01-18T18:01:27.039Z,45.60
2019-01-18T18:04:49.268Z,45.70
2019-01-18T18:07:59.347Z,45.80
2019-01-18T18:11:24.230Z,45.90
2019-01-18T18:14:37.639Z,46.00
2019-01-18T18:17:41.318Z,46.30
2019-01-18T18:20:50.021Z,46.10
2019-01-18T18:24:02.806Z,46.20
2019-01-18T18:27:18.200Z,46.10
2019-01-18T18:30:24.681Z,46.20
2019-01-18T18:33:32.821Z,46.10
2019-01-18T18:36:42.686Z,46.10
2019-01-18T18:39:58.636Z,46.20
2019-01-18T18:43:14.605Z,46.10
2019-01-18T18:46:24.892Z,46.20
2019-01-18T18:49:44.494Z,46.10
2019-01-18T18:52:54.774Z,46.20
2019-01-18T18:56:05.309Z,46.20
2019-01-18T18:59:05.522Z,46.30
2019-01-18T19:02:04.500Z,46.50
2019-01-18T19:05:05.877Z,46.40
2019-01-18T19:08:34.120Z,46.50
2019-01-18T19:11:33.472Z,46.60
2019-01-18T19:14:44.551Z,46.60
2019-01-18T19:17:49.578Z,46.80
2019-01-18T19:20:53.166Z,46.80
2019-01-18T19:24:12.667Z,46.70
2019-01-18T19:27:18.076Z,46.60
2019-01-18T19:30:19.622Z,46.80
2019-01-18T19:33:29.687Z,46.80
2019-01-18T19:36:43.369Z,46.60
2019-01-18T19:39:53.053Z,46.50
2019-01-18T19:43:02.884Z,46.60
2019-01-18T19:46:02.654Z,46.80
2019-01-18T19:49:12.319Z,46.50
2019-01-18T19:52:25.586Z,46.60
2019-01-18T19:55:47.687Z,46.70
2019-01-18T19:58:56.602Z,46.80
2019-01-18T20:01:56.180Z,46.00
2019-01-18T20:05:21.214Z,46.10
2019-01-18T20:08:31.461Z,46.50
2019-01-18T20:11:42.440Z,46.70
2019-01-18T20:14:55.525Z,46.40
2019-01-18T20:18:18.128Z,46.70
2019-01-18T20:21:36.138Z,46.50
2019-01-18T20:24:46.276Z,46.40
2019-01-18T20:28:05.576Z,46.30
2019-01-18T20:31:04.771Z,46.30
2019-01-18T20:34:18.399Z,46.60
2019-01-18T20:37:35.786Z,46.20
2019-01-18T20:40:37.161Z,45.90
2019-01-18T20:43:43.981Z,46.10
2019-01-18T20:46:52.235Z,46.00
2019-01-18T20:50:00.683Z,45.90
2019-01-18T20:53:17.423Z,46.30
2019-01-18T20:56:30.251Z,46.10
2019-01-18T20:59:40.070Z,46.30
2019-01-18T21:02:48.707Z,46.30
2019-01-18T21:05:55.899Z,46.50
2019-01-18T21:08:55.054Z,46.50
2019-01-18T21:11:58.674Z,46.60
2019-01-18T21:15:07.314Z,46.60
2019-01-18T21:18:18.207Z,46.20
2019-01-18T21:21:16.265Z,46.10
2019-01-18T21:24:20.505Z,46.00
2019-01-18T21:27:42.812Z,46.20
2019-01-18T21:31:05.426Z,46.10
2019-01-18T21:34:16.556Z,46.00
2019-01-18T21:37:29.755Z,46.00
2019-01-18T21:40:44.593Z,46.10
2019-01-18T21:44:10.165Z,46.10
2019-01-18T21:47:11.290Z,46.30
2019-01-18T21:50:12.240Z,46.00
2019-01-18T21:53:35.263Z,46.00
2019-01-18T21:56:51.347Z,45.90
2019-01-18T22:00:01.359Z,46.00
2019-01-18T22:03:12.287Z,46.20
2019-01-18T22:06:27.951Z,45.60
2019-01-18T22:09:31.915Z,45.90
2019-01-18T22:12:51.875Z,46.30
2019-01-18T22:16:10.466Z,46.20
2019-01-18T22:19:19.041Z,46.30
2019-01-18T22:22:29.459Z,46.20
2019-01-18T22:25:45.065Z,46.20
2019-01-18T22:28:40.554Z,46.00
2019-01-18T22:31:39.622Z,46.10
2019-01-18T22:34:48.118Z,46.30
2019-01-18T22:37:58.133Z,46.10
2019-01-18T22:41:08.026Z,46.00
2019-01-18T22:44:12.987Z,45.90
2019-01-18T22:47:14.229Z,46.00
2019-01-18T22:50:29.851Z,46.20
2019-01-18T22:53:39.106Z,46.10
2019-01-18T22:57:02.191Z,46.20
2019-01-18T23:00:40.691Z,46.00
2019-01-18T23:03:43.110Z,46.30
2019-01-18T23:06:47.243Z,46.10
2019-01-18T23:10:13.013Z,46.50
2019-01-18T23:13:23.143Z,46.20
2019-01-18T23:16:36.121Z,46.40
2019-01-18T23:19:31.863Z,46.30
2019-01-18T23:22:36.653Z,46.30
2019-01-18T23:25:35.972Z,46.30
2019-01-18T23:28:41.639Z,46.40
2019-01-18T23:31:57.646Z,46.00
2019-01-18T23:35:03.114Z,46.20
2019-01-18T23:38:08.257Z,46.10
2019-01-18T23:41:11.418Z,46.10
2019-01-18T23:44:31.095Z,45.80
2019-01-18T23:47:27.945Z,45.60
2019-01-18T23:50:40.990Z,46.20
2019-01-18T23:53:49.728Z,46.10
2019-01-18T23:56:49.757Z,45.60
